Webcam

2020/06/02 09:50 EBBR 020950Z VRB03KT CAVOK 25/08 Q1018 NOSIG

Webcam

--- Refresh now ---